Time;durP1;ratioP1;P1;durP2;ratioP2;P2;SDS_P1;SDS_P2;PMS_P1;PMS_P2;Temp;Humidity;BMP_temperature;BMP_pressure;BME280_temperature;BME280_humidity;BME280_pressure;Samples;Min_cycle;Max_cycle;Signal;HPM_P1;HPM_P2
2022/04/10 00:01:39;;;;;;;2.70;1.60;;;;;9.40;96338.20;;;;110662;1252;41637;-71
2022/04/10 00:04:09;;;;;;;4.00;1.70;;;;;9.30;96333.80;;;;110646;1254;42487;-71
2022/04/10 00:06:39;;;;;;;1.70;1.40;;;;;9.30;96338.20;;;;110547;1254;42062;-71
2022/04/10 00:09:08;;;;;;;2.30;1.60;;;;;9.20;96334.60;;;;110604;1253;41167;-72
2022/04/10 00:11:38;;;;;;;2.70;1.60;;;;;9.20;96338.80;;;;110672;1252;41387;-72
2022/04/10 00:14:07;;;;;;;2.00;1.50;;;;;9.12;96345.60;;;;110739;1251;41560;-72
2022/04/10 00:16:36;;;;;;;2.20;1.50;;;;;9.10;96345.00;;;;110629;1254;41768;-72
2022/04/10 00:19:06;;;;;;;1.90;1.40;;;;;9.10;96350.20;;;;110597;1254;41735;-72
2022/04/10 00:21:35;;;;;;;2.70;1.60;;;;;9.00;96354.20;;;;110678;1251;42141;-71
2022/04/10 00:24:06;;;;;;;4.40;1.80;;;;;8.98;96352.20;;;;110641;1253;41353;-71
2022/04/10 00:26:36;;;;;;;2.00;1.40;;;;;8.98;96359.20;;;;110632;1252;41396;-71
2022/04/10 00:29:05;;;;;;;1.60;1.40;;;;;8.90;96361.20;;;;110795;1249;41130;-71
2022/04/10 00:31:35;;;;;;;3.00;1.80;;;;;8.90;96356.40;;;;110773;1251;41162;-71
2022/04/10 00:34:05;;;;;;;3.80;1.70;;;;;8.90;96353.00;;;;110667;1251;41149;-71
2022/04/10 00:36:35;;;;;;;3.20;1.60;;;;;8.70;96356.00;;;;110718;1252;41172;-71
2022/04/10 00:39:05;;;;;;;2.10;1.50;;;;;8.70;96353.60;;;;110725;1251;42379;-71
2022/04/10 00:41:35;;;;;;;1.90;1.50;;;;;8.70;96358.20;;;;110544;1253;41757;-71
2022/04/10 00:44:09;;;;;;;2.90;1.70;;;;;8.70;96350.80;;;;110686;1253;41164;-71
2022/04/10 00:46:39;;;;;;;2.20;1.50;;;;;8.70;96355.40;;;;110656;1253;42217;-72
2022/04/10 00:49:08;;;;;;;4.60;1.60;;;;;8.70;96358.80;;;;110703;1252;41140;-71
2022/04/10 00:51:43;;;;;;;4.10;1.60;;;;;8.70;96347.40;;;;110646;1254;41271;-71
2022/04/10 00:54:21;;;;;;;1.90;1.40;;;;;8.70;96343.00;;;;110567;1254;41202;-72
2022/04/10 00:56:50;;;;;;;3.20;1.70;;;;;8.70;96340.60;;;;110684;1253;41135;-72
2022/04/10 00:59:23;;;;;;;2.60;1.60;;;;;8.70;96342.00;;;;110661;1252;41155;-72
2022/04/10 01:01:53;;;;;;;1.80;1.40;;;;;8.70;96343.00;;;;110660;1253;41147;-72
2022/04/10 01:04:41;;;;;;;3.20;1.70;;;;;8.70;96340.80;;;;110639;1254;41616;-71
2022/04/10 01:07:13;;;;;;;2.90;1.70;;;;;8.70;96339.60;;;;110674;1254;41262;-70
2022/04/10 01:09:45;;;;;;;3.10;1.70;;;;;8.60;96340.20;;;;110596;1254;41611;-70
2022/04/10 01:12:15;;;;;;;3.10;1.70;;;;;8.60;96340.60;;;;110620;1254;41134;-71
2022/04/10 01:14:50;;;;;;;3.40;1.60;;;;;8.50;96332.00;;;;110677;1253;41163;-71
2022/04/10 01:17:24;;;;;;;2.70;1.60;;;;;8.48;96325.80;;;;110545;1255;41167;-71
2022/04/10 01:19:54;;;;;;;1.80;1.50;;;;;8.40;96326.80;;;;110532;1253;41460;-71
2022/04/10 01:22:31;;;;;;;3.40;1.60;;;;;8.30;96320.80;;;;110662;1251;41281;-71
2022/04/10 01:25:07;;;;;;;2.50;1.60;;;;;8.28;96321.40;;;;110691;1252;41161;-71
2022/04/10 01:27:41;;;;;;;3.70;1.60;;;;;8.20;96316.00;;;;110640;1252;41640;-72
2022/04/10 01:30:12;;;;;;;3.50;1.50;;;;;8.18;96311.00;;;;110675;1254;41163;-70
2022/04/10 01:32:47;;;;;;;1.90;1.50;;;;;8.10;96318.40;;;;110530;1254;41557;-71
2022/04/10 01:35:18;;;;;;;1.50;1.30;;;;;8.08;96324.20;;;;110526;1254;41182;-71
2022/04/10 01:37:49;;;;;;;2.40;1.50;;;;;8.00;96326.80;;;;110572;1254;41166;-72
2022/04/10 01:40:23;;;;;;;3.40;1.80;;;;;8.00;96325.20;;;;110489;1254;41173;-70
2022/04/10 01:42:53;;;;;;;;;;;;;7.98;96334.00;;;;110561;1253;41284;-71
2022/04/10 01:45:25;;;;;;;2.10;1.40;;;;;7.90;96335.60;;;;110643;1252;41275;-72
2022/04/10 01:47:55;;;;;;;1.90;1.40;;;;;7.90;96339.60;;;;110679;1251;41137;-72
2022/04/10 01:50:25;;;;;;;2.30;1.60;;;;;7.90;96347.60;;;;110682;1252;41423;-73
2022/04/10 01:52:55;;;;;;;2.20;1.50;;;;;7.80;96349.20;;;;110549;1253;42379;-73
2022/04/10 01:55:28;;;;;;;1.50;1.30;;;;;7.74;96342.00;;;;110566;1253;42416;-72
2022/04/10 01:57:59;;;;;;;2.50;1.40;;;;;7.80;96334.20;;;;110600;1252;41628;-72
2022/04/10 02:00:32;;;;;;;4.10;1.50;;;;;7.80;96327.20;;;;110659;1254;41314;-72
2022/04/10 02:03:02;;;;;;;2.90;1.50;;;;;7.80;96329.20;;;;110604;1253;42456;-72
2022/04/10 02:05:31;;;;;;;2.30;1.40;;;;;7.80;96333.00;;;;110574;1253;41284;-72
2022/04/10 02:08:02;;;;;;;1.30;1.20;;;;;7.80;96327.60;;;;110581;1253;41198;-73
2022/04/10 02:10:34;;;;;;;1.80;1.30;;;;;7.82;96328.80;;;;110538;1254;41174;-72
2022/04/10 02:13:05;;;;;;;1.40;1.30;;;;;7.80;96331.20;;;;110597;1254;41156;-72
2022/04/10 02:15:38;;;;;;;2.40;1.50;;;;;7.80;96329.60;;;;110653;1252;41143;-72
2022/04/10 02:18:10;;;;;;;2.10;1.40;;;;;7.80;96332.40;;;;110700;1253;41292;-72
2022/04/10 02:20:41;;;;;;;1.40;1.30;;;;;7.72;96331.80;;;;110617;1252;41965;-72
2022/04/10 02:23:11;;;;;;;3.10;1.50;;;;;7.70;96332.40;;;;110669;1254;41165;-71
2022/04/10 02:25:41;;;;;;;2.00;1.50;;;;;7.70;96333.60;;;;110626;1253;41939;-71
2022/04/10 02:28:10;;;;;;;2.40;1.40;;;;;7.70;96333.20;;;;110688;1251;41655;-71
2022/04/10 02:30:40;;;;;;;2.50;1.50;;;;;7.70;96333.00;;;;110608;1253;42056;-72
2022/04/10 02:33:11;;;;;;;;;;;;;7.70;96336.60;;;;110657;1254;42413;-71
2022/04/10 02:35:43;;;;;;;2.80;1.50;;;;;7.60;96336.20;;;;110651;1254;41147;-72
2022/04/10 02:38:16;;;;;;;2.30;1.30;;;;;7.50;96333.80;;;;110468;1254;41638;-72
2022/04/10 02:40:46;;;;;;;1.70;1.30;;;;;7.50;96327.60;;;;110683;1254;41598;-73
2022/04/10 02:43:17;;;;;;;2.40;1.40;;;;;7.54;96327.80;;;;110526;1254;41784;-71
2022/04/10 02:45:48;;;;;;;1.90;1.30;;;;;7.58;96315.80;;;;110698;1253;42516;-71
2022/04/10 02:48:19;;;;;;;1.90;1.40;;;;;7.58;96318.20;;;;110619;1252;41275;-71
2022/04/10 02:50:49;;;;;;;1.70;1.50;;;;;7.60;96317.60;;;;110410;1255;41733;-71
2022/04/10 02:53:20;;;;;;;1.90;1.40;;;;;7.50;96315.00;;;;110722;1252;41253;-71
2022/04/10 02:55:51;;;;;;;1.60;1.40;;;;;7.50;96321.40;;;;110637;1254;41315;-71
2022/04/10 02:58:20;;;;;;;1.40;1.30;;;;;7.50;96314.80;;;;110637;1253;41167;-71
2022/04/10 03:00:50;;;;;;;1.50;1.40;;;;;7.50;96319.80;;;;110670;1251;41268;-71
2022/04/10 03:03:20;;;;;;;3.10;1.40;;;;;7.50;96319.00;;;;110649;1253;41168;-72
2022/04/10 03:05:50;;;;;;;3.00;1.60;;;;;7.50;96323.20;;;;110781;1251;41015;-72
2022/04/10 03:08:21;;;;;;;4.00;1.60;;;;;7.50;96327.20;;;;110597;1254;41394;-71
2022/04/10 03:10:51;;;;;;;2.00;1.40;;;;;7.30;96327.40;;;;110758;1252;41272;-72
2022/04/10 03:13:21;;;;;;;1.40;1.30;;;;;7.20;96334.80;;;;110725;1251;41183;-71
2022/04/10 03:15:55;;;;;;;2.20;1.40;;;;;7.20;96335.60;;;;110700;1252;41167;-71
2022/04/10 03:18:26;;;;;;;1.90;1.30;;;;;7.20;96334.40;;;;110687;1252;41684;-72
2022/04/10 03:20:55;;;;;;;4.30;1.60;;;;;7.20;96332.20;;;;110886;1251;41187;-72
2022/04/10 03:23:27;;;;;;;2.20;1.50;;;;;7.16;96329.40;;;;110767;1250;41144;-72
2022/04/10 03:25:58;;;;;;;2.30;1.50;;;;;7.10;96330.80;;;;110631;1251;41509;-71
2022/04/10 03:28:28;;;;;;;2.60;1.70;;;;;7.10;96336.60;;;;110756;1251;41288;-70
2022/04/10 03:30:59;;;;;;;1.70;1.40;;;;;7.10;96332.20;;;;110854;1250;41272;-71
2022/04/10 03:33:30;;;;;;;1.80;1.50;;;;;7.00;96332.20;;;;110753;1251;41216;-72
2022/04/10 03:36:00;;;;;;;1.90;1.50;;;;;7.00;96329.40;;;;110661;1252;41726;-71
2022/04/10 03:38:30;;;;;;;1.50;1.40;;;;;7.00;96329.80;;;;110786;1251;41733;-71
2022/04/10 03:41:00;;;;;;;1.60;1.30;;;;;7.10;96329.40;;;;110555;1252;41176;-72
2022/04/10 03:43:33;;;;;;;2.80;1.50;;;;;7.04;96330.00;;;;110812;1251;41143;-71
2022/04/10 03:46:03;;;;;;;3.00;1.70;;;;;7.00;96327.20;;;;110707;1251;41267;-72
2022/04/10 03:48:33;;;;;;;2.20;1.50;;;;;7.00;96334.00;;;;110693;1252;41161;-71
2022/04/10 03:51:03;;;;;;;2.20;1.50;;;;;7.00;96327.60;;;;110635;1252;41720;-71
2022/04/10 03:53:35;;;;;;;2.30;1.60;;;;;7.00;96326.00;;;;110790;1250;41140;-71
2022/04/10 03:56:05;;;;;;;1.90;1.40;;;;;7.00;96324.60;;;;110848;1251;41165;-71
2022/04/10 03:58:35;;;;;;;2.70;1.70;;;;;7.02;96323.00;;;;110912;1251;41249;-72
2022/04/10 04:01:08;;;;;;;15.00;7.80;;;;;7.10;96329.20;;;;110695;1252;41697;-72
2022/04/10 04:03:38;;;;;;;24.00;13.50;;;;;7.10;96327.40;;;;110811;1250;41133;-73
2022/04/10 04:06:08;;;;;;;20.00;11.80;;;;;7.10;96327.40;;;;110695;1250;41144;-72
2022/04/10 04:08:40;;;;;;;15.50;8.30;;;;;7.10;96328.40;;;;110735;1250;41264;-72
2022/04/10 04:11:09;;;;;;;13.50;7.90;;;;;7.10;96326.40;;;;110641;1254;41780;-72
2022/04/10 04:13:40;;;;;;;8.50;4.20;;;;;7.10;96328.40;;;;110759;1249;41156;-72
2022/04/10 04:16:10;;;;;;;6.30;2.90;;;;;7.10;96333.20;;;;110710;1252;41139;-72
2022/04/10 04:18:40;;;;;;;5.60;2.30;;;;;7.14;96331.60;;;;110768;1251;41172;-72
2022/04/10 04:21:10;;;;;;;6.30;2.60;;;;;7.20;96343.00;;;;110675;1252;41605;-72
2022/04/10 04:23:43;;;;;;;6.90;2.40;;;;;7.20;96344.20;;;;110763;1251;41731;-72
2022/04/10 04:26:12;;;;;;;5.00;2.30;;;;;7.20;96345.00;;;;110772;1249;41600;-72
2022/04/10 04:28:42;;;;;;;3.50;1.80;;;;;7.18;96347.60;;;;110917;1249;41271;-72
2022/04/10 04:31:12;;;;;;;2.90;1.70;;;;;7.10;96351.60;;;;110841;1251;41523;-72
2022/04/10 04:33:41;;;;;;;4.30;1.80;;;;;7.02;96345.20;;;;110709;1251;41286;-71
2022/04/10 04:36:10;;;;;;;5.80;2.50;;;;;7.00;96348.00;;;;110751;1251;41476;-71
2022/04/10 04:38:42;;;;;;;3.50;1.90;;;;;7.00;96343.80;;;;110729;1251;41003;-71
2022/04/10 04:41:12;;;;;;;4.50;2.20;;;;;7.00;96345.80;;;;110739;1251;41223;-71
2022/04/10 04:43:41;;;;;;;3.30;2.00;;;;;7.00;96350.60;;;;110731;1251;42086;-73
2022/04/10 04:46:11;;;;;;;4.30;1.90;;;;;7.00;96347.60;;;;110669;1251;41832;-71
2022/04/10 04:48:41;;;;;;;4.70;1.90;;;;;7.00;96354.60;;;;110699;1252;41610;-71
2022/04/10 04:51:14;;;;;;;4.10;1.90;;;;;7.00;96352.40;;;;110709;1249;41942;-72
2022/04/10 04:53:44;;;;;;;3.50;1.90;;;;;7.00;96355.20;;;;110676;1253;42197;-72
2022/04/10 04:56:14;;;;;;;3.30;1.60;;;;;7.00;96365.60;;;;110831;1250;42315;-71
2022/04/10 04:58:43;;;;;;;3.50;1.70;;;;;6.90;96370.60;;;;110686;1251;41418;-71
2022/04/10 05:01:13;;;;;;;3.60;1.80;;;;;6.90;96373.60;;;;110677;1252;41188;-72
2022/04/10 05:03:43;;;;;;;3.00;1.80;;;;;6.90;96370.60;;;;110752;1252;41260;-73
2022/04/10 05:06:12;;;;;;;3.00;1.70;;;;;6.86;96369.00;;;;110879;1250;41258;-72
2022/04/10 05:08:41;;;;;;;4.00;2.00;;;;;6.86;96372.80;;;;110888;1250;41708;-72
2022/04/10 05:11:13;;;;;;;4.70;2.20;;;;;6.90;96370.40;;;;110764;1251;41276;-72
2022/04/10 05:13:43;;;;;;;4.80;2.30;;;;;6.90;96370.60;;;;110702;1253;41333;-72
2022/04/10 05:16:12;;;;;;;4.00;1.90;;;;;6.90;96374.20;;;;110879;1251;41165;-71
2022/04/10 05:18:45;;;;;;;4.60;2.10;;;;;6.90;96373.60;;;;110769;1251;42400;-72
2022/04/10 05:21:16;;;;;;;4.30;2.10;;;;;6.90;96362.60;;;;110744;1251;41271;-72
2022/04/10 05:23:45;;;;;;;3.00;1.70;;;;;6.80;96368.20;;;;110731;1252;41189;-71
2022/04/10 05:26:18;;;;;;;3.80;1.80;;;;;6.80;96372.60;;;;110683;1253;42387;-72
2022/04/10 05:28:52;;;;;;;8.50;4.40;;;;;6.70;96379.20;;;;110751;1251;41805;-71
2022/04/10 05:31:26;;;;;;;16.60;9.70;;;;;6.60;96382.40;;;;110742;1250;41184;-72
2022/04/10 05:33:56;;;;;;;12.10;7.20;;;;;6.60;96380.60;;;;110728;1251;42621;-71
2022/04/10 05:36:25;;;;;;;8.60;4.50;;;;;6.58;96377.20;;;;110748;1251;42305;-70
2022/04/10 05:38:55;;;;;;;8.20;4.20;;;;;6.50;96381.20;;;;110681;1251;41148;-71
2022/04/10 05:41:26;;;;;;;5.30;2.40;;;;;6.50;96386.00;;;;110812;1250;42179;-71
2022/04/10 05:43:59;;;;;;;4.60;2.20;;;;;6.46;96376.60;;;;110776;1251;41735;-72
2022/04/10 05:46:29;;;;;;;4.80;2.20;;;;;6.40;96378.80;;;;110767;1251;40830;-72
2022/04/10 05:49:00;;;;;;;5.90;2.50;;;;;6.40;96387.20;;;;110483;1252;41993;-72
2022/04/10 05:51:29;;;;;;;5.60;2.50;;;;;6.40;96389.00;;;;110774;1251;41258;-72
2022/04/10 05:53:58;;;;;;;5.10;2.30;;;;;6.40;96391.20;;;;110700;1252;41158;-72
2022/04/10 05:56:29;;;;;;;5.60;2.40;;;;;6.40;96392.80;;;;110586;1254;41156;-71
2022/04/10 05:58:58;;;;;;;5.40;2.40;;;;;6.38;96391.20;;;;110753;1252;41740;-72
2022/04/10 06:01:27;;;;;;;4.60;2.20;;;;;6.30;96392.20;;;;110658;1252;41163;-71
2022/04/10 06:03:56;;;;;;;5.10;2.40;;;;;6.30;96398.00;;;;110638;1253;41626;-72
2022/04/10 06:06:25;;;;;;;6.10;2.70;;;;;6.24;96402.80;;;;110674;1252;41184;-73
2022/04/10 06:09:07;;;;;;;6.10;2.60;;;;;6.20;96407.00;;;;110854;1252;41201;-71
2022/04/10 06:11:36;;;;;;;5.60;2.50;;;;;6.20;96407.20;;;;110811;1251;41135;-71
2022/04/10 06:14:05;;;;;;;5.50;2.50;;;;;6.20;96408.60;;;;110829;1249;41377;-70
2022/04/10 06:16:34;;;;;;;5.20;2.10;;;;;6.10;96419.40;;;;110796;1251;41147;-72
2022/04/10 06:19:03;;;;;;;5.50;2.40;;;;;6.00;96423.20;;;;110839;1251;41333;-72
2022/04/10 06:21:32;;;;;;;4.70;2.20;;;;;5.90;96431.20;;;;110711;1251;41602;-72
2022/04/10 06:24:02;;;;;;;5.00;2.40;;;;;5.80;96431.40;;;;110520;1253;41210;-72
2022/04/10 06:26:38;;;;;;;4.40;2.00;;;;;5.70;96435.00;;;;110327;1251;481185;-72
2022/04/10 06:29:07;;;;;;;5.10;2.10;;;;;5.60;96444.60;;;;110596;1252;41169;-72
2022/04/10 06:31:43;;;;;;;5.80;2.10;;;;;5.50;96460.40;;;;110813;1251;41607;-72
2022/04/10 06:34:13;;;;;;;5.00;2.30;;;;;5.50;96469.60;;;;110657;1253;41641;-72
2022/04/10 06:36:43;;;;;;;4.70;2.10;;;;;5.46;96473.40;;;;110585;1252;41872;-72
2022/04/10 06:39:15;;;;;;;4.20;2.10;;;;;5.36;96477.80;;;;110793;1251;41147;-72
2022/04/10 06:41:45;;;;;;;5.60;2.40;;;;;5.30;96486.40;;;;110586;1253;42072;-72
2022/04/10 06:44:23;;;;;;;4.60;2.20;;;;;5.30;96490.20;;;;110621;1252;42297;-72
2022/04/10 06:47:01;;;;;;;4.90;2.00;;;;;5.20;96499.00;;;;110651;1253;41261;-71
2022/04/10 06:49:35;;;;;;;3.40;1.80;;;;;5.20;96503.40;;;;110695;1253;41463;-72
2022/04/10 06:52:05;;;;;;;3.80;2.00;;;;;5.10;96504.80;;;;110683;1252;41267;-71
2022/04/10 06:54:37;;;;;;;4.10;2.10;;;;;5.00;96507.00;;;;110468;1251;42176;-71
2022/04/10 06:57:06;;;;;;;4.00;2.00;;;;;4.92;96509.20;;;;110715;1252;41594;-72
2022/04/10 06:59:35;;;;;;;3.60;1.90;;;;;4.90;96510.20;;;;110742;1252;41600;-72
2022/04/10 07:02:08;;;;;;;5.10;1.90;;;;;4.80;96518.60;;;;110661;1250;41200;-71
2022/04/10 07:04:38;;;;;;;6.30;2.60;;;;;4.70;96523.00;;;;110643;1249;41620;-71
2022/04/10 07:07:08;;;;;;;5.20;2.30;;;;;4.70;96526.20;;;;110723;1252;41484;-72
2022/04/10 07:09:37;;;;;;;6.30;2.70;;;;;4.70;96529.40;;;;110699;1252;42535;-71
2022/04/10 07:12:07;;;;;;;5.60;2.40;;;;;4.68;96534.20;;;;110577;1254;41164;-71
2022/04/10 07:14:40;;;;;;;7.10;2.80;;;;;4.60;96531.80;;;;110777;1251;41152;-71
2022/04/10 07:17:11;;;;;;;10.60;4.40;;;;;4.50;96542.20;;;;110716;1251;41180;-71
2022/04/10 07:19:40;;;;;;;7.00;2.80;;;;;4.50;96543.40;;;;110732;1252;41672;-72
2022/04/10 07:24:57;;;;;;;14.00;7.50;;;;;4.40;96548.60;;;;110678;1252;41187;-71
2022/04/10 07:27:27;;;;;;;20.20;10.00;;;;;4.40;96548.60;;;;110591;1252;41806;-71
2022/04/10 07:30:03;;;;;;;43.50;16.80;;;;;4.40;96553.40;;;;110614;1252;41492;-70
2022/04/10 07:32:37;;;;;;;48.70;16.80;;;;;4.40;96553.00;;;;110538;1254;41267;-70
2022/04/10 07:35:12;;;;;;;49.40;16.00;;;;;4.42;96559.00;;;;110544;1254;41676;-70
2022/04/10 07:37:49;;;;;;;30.00;11.30;;;;;4.50;96562.80;;;;110638;1252;41256;-72
2022/04/10 07:40:20;;;;;;;13.20;4.60;;;;;4.50;96558.60;;;;110493;1254;41276;-72
2022/04/10 07:42:50;;;;;;;14.30;5.20;;;;;4.52;96560.60;;;;110828;1251;41614;-71
2022/04/10 07:48:21;;;;;;;10.70;4.10;;;;;4.70;96564.40;;;;110692;1250;42298;-71
2022/04/10 07:50:50;;;;;;;10.60;3.90;;;;;4.70;96566.60;;;;110611;1253;41179;-71
2022/04/10 07:53:21;;;;;;;7.20;3.00;;;;;4.80;96567.80;;;;110622;1253;41453;-71
2022/04/10 07:55:53;;;;;;;6.50;2.70;;;;;4.90;96569.60;;;;110768;1250;41176;-72
2022/04/10 07:58:23;;;;;;;5.90;2.80;;;;;4.90;96573.20;;;;110565;1252;40748;-72
2022/04/10 08:00:52;;;;;;;4.20;2.20;;;;;5.00;96575.20;;;;110689;1252;41178;-72
2022/04/10 08:03:26;;;;;;;7.00;3.10;;;;;5.10;96580.00;;;;110608;1253;41166;-72
2022/04/10 08:06:15;;;;;;;7.70;2.90;;;;;5.30;96582.40;;;;110654;1251;41172;-72
2022/04/10 08:08:50;;;;;;;3.40;1.80;;;;;5.40;96583.80;;;;110389;1252;42305;-71
2022/04/10 08:11:19;;;;;;;2.70;1.60;;;;;5.40;96582.80;;;;110594;1252;41331;-72
2022/04/10 08:13:48;;;;;;;3.00;1.60;;;;;5.40;96586.00;;;;110665;1252;41875;-72
2022/04/10 08:16:17;;;;;;;2.20;1.50;;;;;5.36;96591.40;;;;110596;1252;42158;-71
2022/04/10 08:18:46;;;;;;;3.20;1.70;;;;;5.32;96593.60;;;;110721;1252;41455;-71
2022/04/10 08:21:14;;;;;;;2.50;1.60;;;;;5.30;96606.00;;;;110756;1251;41162;-71
2022/04/10 08:23:43;;;;;;;1.80;1.50;;;;;5.30;96608.60;;;;110929;1250;41270;-71
2022/04/10 08:26:12;;;;;;;2.50;1.50;;;;;5.20;96611.60;;;;110818;1250;42251;-71
2022/04/10 08:28:41;;;;;;;3.40;1.70;;;;;5.10;96612.20;;;;110850;1251;41880;-71
2022/04/10 08:31:10;;;;;;;2.20;1.50;;;;;5.00;96604.80;;;;110763;1251;41348;-71
2022/04/10 08:33:39;;;;;;;3.20;1.70;;;;;4.88;96611.60;;;;110644;1253;41428;-71
2022/04/10 08:36:08;;;;;;;2.90;1.70;;;;;4.70;96615.00;;;;110766;1249;41256;-71
2022/04/10 08:38:37;;;;;;;2.70;1.60;;;;;4.80;96618.40;;;;110810;1251;41875;-71
2022/04/10 08:41:08;;;;;;;2.00;1.40;;;;;4.90;96612.80;;;;110797;1251;41160;-71
2022/04/10 08:43:37;;;;;;;4.80;2.00;;;;;5.10;96613.60;;;;110688;1252;41149;-72
2022/04/10 08:46:06;;;;;;;3.80;1.60;;;;;5.10;96612.40;;;;110683;1252;41208;-71
2022/04/10 08:48:36;;;;;;;2.60;1.60;;;;;5.10;96618.20;;;;110627;1251;41433;-73
2022/04/10 08:51:10;;;;;;;4.30;1.90;;;;;5.10;96615.40;;;;110696;1252;42070;-70
2022/04/10 08:53:39;;;;;;;3.60;1.80;;;;;5.10;96621.20;;;;110920;1250;41903;-72
2022/04/10 08:56:09;;;;;;;5.10;2.20;;;;;4.90;96621.80;;;;110676;1252;41853;-72
2022/04/10 08:58:38;;;;;;;3.60;2.00;;;;;4.90;96622.80;;;;110856;1250;41130;-72
2022/04/10 09:01:11;;;;;;;3.00;1.70;;;;;4.80;96621.80;;;;110676;1252;41263;-71
2022/04/10 09:03:40;;;;;;;8.60;4.30;;;;;4.80;96631.40;;;;110687;1252;41139;-70
2022/04/10 09:06:10;;;;;;;11.00;6.40;;;;;4.78;96631.80;;;;110654;1253;41203;-71
2022/04/10 09:08:40;;;;;;;10.20;5.00;;;;;4.76;96636.20;;;;110926;1250;41631;-71
2022/04/10 09:11:09;;;;;;;8.00;3.50;;;;;4.70;96635.00;;;;110662;1251;41382;-71
2022/04/10 09:13:47;;;;;;;6.90;2.90;;;;;4.70;96636.80;;;;110651;1254;41672;-71
2022/04/10 09:16:22;;;;;;;6.60;2.80;;;;;4.60;96642.60;;;;110726;1251;41150;-71
2022/04/10 09:19:00;;;;;;;6.20;2.50;;;;;4.64;96640.40;;;;110674;1252;41149;-70
2022/04/10 09:21:32;;;;;;;8.50;3.60;;;;;4.68;96646.20;;;;110800;1251;41643;-71
2022/04/10 09:24:12;;;;;;;6.50;3.10;;;;;4.52;96646.00;;;;110855;1249;41150;-71
2022/04/10 09:26:46;;;;;;;6.40;2.80;;;;;4.50;96651.40;;;;110681;1252;41256;-70
2022/04/10 09:29:17;;;;;;;7.60;2.90;;;;;4.46;96657.20;;;;110821;1249;41719;-71
2022/04/10 09:31:46;;;;;;;8.50;4.30;;;;;4.50;96657.40;;;;110777;1250;41140;-72
2022/04/10 09:34:20;;;;;;;7.30;3.30;;;;;4.50;96658.00;;;;110775;1252;41266;-72
2022/04/10 09:37:14;;;;;;;7.80;3.70;;;;;4.40;96662.00;;;;110777;1251;41402;-71
2022/04/10 09:39:44;;;;;;;5.90;2.60;;;;;4.40;96660.00;;;;110826;1251;42491;-71
2022/04/10 09:42:14;;;;;;;6.80;2.70;;;;;4.44;96657.20;;;;110839;1252;41154;-71
2022/04/10 09:45:03;;;;;;;6.30;2.60;;;;;4.36;96661.00;;;;110762;1251;41420;-71
2022/04/10 09:47:32;;;;;;;6.50;2.90;;;;;4.40;96655.00;;;;110667;1252;41709;-69
2022/04/10 09:50:05;;;;;;;5.80;2.50;;;;;4.40;96661.00;;;;110949;1249;41133;-72
2022/04/10 09:52:37;;;;;;;5.10;2.40;;;;;4.34;96670.40;;;;110752;1251;41314;-71
2022/04/10 09:55:08;;;;;;;5.50;2.30;;;;;4.38;96673.60;;;;110609;1254;41174;-72
2022/04/10 09:57:37;;;;;;;;;;;;;4.30;96679.60;;;;110765;1251;41266;-70
2022/04/10 10:00:06;;;;;;;4.60;2.30;;;;;4.30;96673.80;;;;110669;1252;41200;-71
2022/04/10 10:02:41;;;;;;;4.20;2.20;;;;;4.18;96671.20;;;;110880;1251;41432;-71
2022/04/10 10:05:10;;;;;;;5.50;2.50;;;;;4.14;96671.00;;;;110694;1252;41969;-70
2022/04/10 10:07:39;;;;;;;5.10;2.30;;;;;4.10;96672.20;;;;110697;1251;41847;-71
2022/04/10 10:10:08;;;;;;;4.70;2.20;;;;;4.20;96673.40;;;;110824;1252;41146;-71
2022/04/10 10:12:38;;;;;;;4.50;2.20;;;;;4.20;96677.20;;;;110710;1252;42514;-71
2022/04/10 10:15:08;;;;;;;6.30;2.70;;;;;4.10;96682.80;;;;110736;1253;41256;-72
2022/04/10 10:17:37;;;;;;;4.90;2.30;;;;;4.10;96686.20;;;;110848;1250;41941;-71
2022/04/10 10:20:09;;;;;;;5.40;2.30;;;;;4.10;96683.20;;;;110911;1250;41148;-72
2022/04/10 10:22:39;;;;;;;7.30;2.60;;;;;4.10;96684.00;;;;110879;1250;41160;-71
2022/04/10 10:25:19;;;;;;;5.40;2.30;;;;;4.10;96686.80;;;;110935;1250;40966;-71
2022/04/10 10:28:00;;;;;;;5.30;2.40;;;;;4.10;96683.20;;;;110901;1250;41618;-71
2022/04/10 10:30:47;;;;;;;5.40;2.50;;;;;4.10;96678.20;;;;110755;1251;41360;-71
2022/04/10 10:33:22;;;;;;;7.20;2.70;;;;;4.02;96673.00;;;;110914;1250;41950;-71
2022/04/10 10:35:55;;;;;;;5.20;2.40;;;;;4.00;96673.20;;;;110651;1253;41315;-71
2022/04/10 10:38:31;;;;;;;5.00;2.20;;;;;4.00;96671.60;;;;110846;1250;41894;-71
2022/04/10 10:41:26;;;;;;;4.00;2.00;;;;;4.10;96672.00;;;;110655;1253;41155;-72
2022/04/10 10:43:56;;;;;;;6.20;2.30;;;;;4.10;96675.40;;;;110749;1252;42390;-72
2022/04/10 10:46:28;;;;;;;7.90;3.70;;;;;4.10;96677.20;;;;110738;1253;42447;-72
2022/04/10 10:49:19;;;;;;;6.50;2.50;;;;;4.10;96676.80;;;;110657;1253;42019;-70
2022/04/10 10:51:51;;;;;;;6.40;2.70;;;;;4.20;96684.40;;;;110669;1251;41164;-72
2022/04/10 10:54:26;;;;;;;7.00;2.90;;;;;4.26;96694.00;;;;110629;1252;42042;-71
2022/04/10 10:56:55;;;;;;;6.40;3.00;;;;;4.30;96696.00;;;;110634;1253;41264;-72
2022/04/10 11:00:12;;;;;;;5.90;2.50;;;;;4.30;96695.00;;;;110874;1250;41124;-71
2022/04/10 11:02:47;;;;;;;8.50;2.80;;;;;4.40;96689.60;;;;110729;1250;41150;-70
2022/04/10 11:05:25;;;;;;;7.80;3.00;;;;;4.50;96686.80;;;;110662;1251;42324;-71
2022/04/10 11:07:57;;;;;;;6.80;2.70;;;;;4.52;96690.00;;;;110659;1253;41165;-71
2022/04/10 11:10:29;;;;;;;7.70;3.00;;;;;4.56;96691.60;;;;110613;1253;41160;-72
2022/04/10 11:13:02;;;;;;;7.00;2.60;;;;;4.70;96694.20;;;;110602;1252;41162;-71
2022/04/10 11:15:46;;;;;;;6.30;2.80;;;;;4.70;96697.00;;;;110615;1252;41133;-71
2022/04/10 11:18:25;;;;;;;7.70;3.30;;;;;4.76;96693.60;;;;110725;1252;41136;-72
2022/04/10 11:20:55;;;;;;;6.20;2.70;;;;;4.80;96696.40;;;;110740;1250;41475;-72
2022/04/10 11:23:29;;;;;;;6.10;2.60;;;;;4.80;96701.60;;;;110737;1251;41178;-72
2022/04/10 11:26:02;;;;;;;5.70;2.70;;;;;4.90;96707.20;;;;110667;1252;41549;-71
2022/04/10 11:28:52;;;;;;;6.20;2.60;;;;;4.90;96709.80;;;;110678;1253;41163;-71
2022/04/10 11:31:31;;;;;;;6.30;2.40;;;;;5.00;96709.40;;;;110660;1253;41465;-71
2022/04/10 11:34:10;;;;;;;6.50;2.50;;;;;5.10;96717.00;;;;110681;1253;42647;-72
2022/04/10 11:36:55;;;;;;;4.40;2.20;;;;;5.20;96716.00;;;;110682;1251;41277;-72
2022/04/10 11:39:32;;;;;;;6.00;2.30;;;;;5.30;96716.60;;;;110622;1252;41622;-72
2022/04/10 11:42:04;;;;;;;6.90;2.20;;;;;5.40;96715.20;;;;110797;1252;41149;-72
2022/04/10 11:44:33;;;;;;;4.50;2.10;;;;;5.50;96715.40;;;;110781;1252;41722;-71
2022/04/10 11:47:05;;;;;;;6.10;2.40;;;;;5.60;96722.40;;;;110860;1251;41084;-71
2022/04/10 11:49:34;;;;;;;6.10;2.90;;;;;5.60;96728.00;;;;110525;1254;41620;-72
2022/04/10 11:52:04;;;;;;;5.10;2.30;;;;;5.60;96730.20;;;;110580;1254;41170;-69
2022/04/10 11:54:36;;;;;;;5.60;2.40;;;;;5.60;96738.40;;;;110649;1250;41273;-71
2022/04/10 11:57:06;;;;;;;5.10;2.20;;;;;5.66;96743.20;;;;110495;1253;41158;-72
2022/04/10 11:59:42;;;;;;;6.10;2.80;;;;;5.72;96735.60;;;;110474;1254;41254;-70
2022/04/10 12:02:13;;;;;;;6.90;2.80;;;;;5.80;96734.00;;;;110694;1252;41574;-69
2022/04/10 12:04:43;;;;;;;5.70;2.70;;;;;5.80;96733.40;;;;110611;1252;41154;-72
2022/04/10 12:07:13;;;;;;;6.20;2.50;;;;;5.80;96728.80;;;;110602;1253;41159;-72
2022/04/10 12:09:52;;;;;;;6.30;2.40;;;;;5.90;96737.40;;;;110627;1253;41971;-72
2022/04/10 12:12:36;;;;;;;11.30;3.60;;;;;5.90;96741.80;;;;110576;1252;41547;-71
2022/04/10 12:15:16;;;;;;;9.10;3.40;;;;;5.90;96736.60;;;;110669;1252;41277;-70
2022/04/10 12:17:46;;;;;;;8.90;3.40;;;;;6.00;96735.60;;;;110503;1252;41162;-72
2022/04/10 12:20:41;;;;;;;6.50;2.50;;;;;6.10;96748.80;;;;110697;1250;41626;-71
2022/04/10 12:23:26;;;;;;;8.10;3.10;;;;;6.10;96743.40;;;;110682;1252;41172;-71
2022/04/10 12:25:57;;;;;;;6.00;2.40;;;;;6.14;96743.40;;;;110665;1252;41270;-72
2022/04/10 12:28:28;;;;;;;4.30;2.00;;;;;6.10;96747.00;;;;110555;1252;42152;-71
2022/04/10 12:31:00;;;;;;;3.90;1.90;;;;;6.10;96751.80;;;;110735;1252;41163;-71
2022/04/10 12:33:30;;;;;;;4.10;1.80;;;;;6.20;96752.20;;;;110661;1251;41164;-71
2022/04/10 12:35:59;;;;;;;5.50;2.10;;;;;6.20;96753.40;;;;110692;1252;41457;-72
2022/04/10 12:38:30;;;;;;;3.70;1.80;;;;;6.20;96755.20;;;;110659;1254;41165;-71
2022/04/10 12:41:05;;;;;;;3.80;1.90;;;;;6.30;96760.40;;;;110667;1252;41154;-72
2022/04/10 12:43:36;;;;;;;4.20;1.90;;;;;6.30;96754.20;;;;110694;1252;41521;-72
2022/04/10 12:46:12;;;;;;;4.00;1.80;;;;;6.36;96752.60;;;;110681;1252;41971;-71
2022/04/10 12:48:41;;;;;;;3.60;2.00;;;;;6.32;96749.20;;;;110677;1252;41153;-71